SUCCESS DAM (SCC)

Elevation: 692' · TULE R basin · Operator: US Army Corps of Engineers

Provisional data, subject to change.
Query executed Friday at 20:01:23   clock

Select a sensor type for a plot of data.
Note: Reservoir Flows are daily averages.

Earlier

Date RES ELE    STORAGE    RES CHG    TOC STO    ABV TOC    OUTFLOW    INFLOW    FNF    PPT INC    TEMP MN    TEMP MX    WINDLEN    EVP PAN   
 FEET   AF   AF   AF   AF   CFS   CFS   CFS   INCHES   DEG F   DEG F   MILES   INCHES  
06/26/2014 599.30 12480 -72 82300 -69820 30 -1 -1 0.00 18 31 80 0.30
06/27/2014 599.18 12409 -71 82300 -69891 29 -1 -1 0.00 16 33 67 0.31
06/28/2014 599.06 12338 -71 82300 -69962 29 -1 -1 0.00 16 36 64 0.32
06/29/2014 598.95 12273 -65 82300 -70027 28 1 1 0.00 17 38 59 0.33
06/30/2014 598.88 12232 -41 82300 -70068 15 1 1 0.00 22 41 66 0.35
07/01/2014 598.82 12197 -35 82300 -70103 11 -0 0 0.00 22 41 69 0.35
07/02/2014 598.77 12167 -30 82300 -70133 9 1 1 0.00 20 41 65 0.34
07/03/2014 598.71 12132 -35 82300 -70168 11 0 0 0.00 21 40 68 0.35
07/04/2014 598.65 12097 -35 82300 -70203 11 -0 0 0.00 20 42 63 0.35
07/05/2014 598.59 12062 -35 82300 -70238 9 -3 -3 0.00 21 40 59 0.34
07/06/2014 598.52 12022 -40 82300 -70278 13 -1 -1 0.00 22 39 67 0.32
07/07/2014 598.42 11964 -58 82300 -70336 24 1 1 0.00 22 40 58 0.32
07/08/2014 598.30 11894 -70 82300 -70406 28 -1 -1 0.00 21 42 60 0.34
07/09/2014 598.17 11820 -74 82300 -70480 29 -2 -2 0.00 21 40 74 0.35
07/10/2014 598.05 11751 -69 82300 -70549 28 -0 0 0.00 20 38 72 0.33
07/11/2014 597.92 11677 -74 82300 -70623 26 -5 -5 0.00 18 36 70 0.32
07/12/2014 597.82 11620 -- 82300 -- 25 2 2 0.00 19 35 65 0.31
07/13/2014 597.72 11563 -- 82300 -- 23 -0 0 0.00 21 41 58 0.33
07/14/2014 597.65 11524 -- 82300 -70776 16 1 1 0.00 27 42 60 0.26
07/15/2014 597.59 11490 -34 82300 -70810 -- -- 0 -- -- -- -- --
07/16/2014 597.52 11451 -39 82300 -70849 13 -1 -1 0.00 23 37 79 0.33
07/17/2014 597.45 11411 -40 82300 -70889 12 -2 -2 0.00 20 34 76 0.31
07/18/2014 597.39 11378 -33 82300 -70922 10 -1 -1 0.00 19 35 70 0.30
07/19/2014 597.35 11355 -23 82300 -70945 6 -1 -1 0.00 22 36 66 0.25
07/20/2014 597.30 11328 -27 82300 -70972 9 -0 0 0.00 23 36 70 0.26
07/21/2014 597.19 11266 -62 82300 -71034 25 -0 0 0.00 20 36 68 0.30
07/22/2014 597.08 11205 -61 82300 -71095 27 2 2 0.00 21 38 69 0.32
07/23/2014 596.95 11134 -71 82300 -71166 28 -3 -3 0.00 18 33 65 0.29
07/24/2014 596.82 11062 -72 82300 -71238 29 -2 -2 0.00 18 36 67 0.31
07/25/2014 -- -- -- -- -- -- -- -- -- -- -- -- --

Later | Latest

Warning! This data is preliminary and subject to revision.

Download Data Now Download Data Now | Show SCC Map | Plot SCC Data | 1 Month SCC Data | Real-Time SCC Data | SCC Info